Time;durP1;ratioP1;P1;durP2;ratioP2;P2;SDS_P1;SDS_P2;PMS_P1;PMS_P2;Temp;Humidity;BMP_temperature;BMP_pressure;BME280_temperature;BME280_humidity;BME280_pressure;Samples;Min_cycle;Max_cycle;Signal;HPM_P1;HPM_P2
2022/05/15 00:02:27;;;;;;;8.48;4.35;;;18.10;88.00;;;;;;5054976;28;20083;-75
2022/05/15 00:04:53;;;;;;;9.35;3.35;;;18.10;88.00;;;;;;5036391;28;20535;-75
2022/05/15 00:07:19;;;;;;;10.85;3.20;;;18.10;87.80;;;;;;5054813;28;20048;-74
2022/05/15 00:09:45;;;;;;;12.27;4.10;;;18.20;87.90;;;;;;5036313;28;20393;-74
2022/05/15 00:12:12;;;;;;;6.15;3.08;;;18.20;87.70;;;;;;5037124;28;20037;-75
2022/05/15 00:14:38;;;;;;;6.30;3.13;;;18.20;87.60;;;;;;5054903;28;20029;-75
2022/05/15 00:17:04;;;;;;;6.97;3.10;;;18.10;87.60;;;;;;5054208;28;20363;-75
2022/05/15 00:19:31;;;;;;;6.90;3.53;;;18.20;87.40;;;;;;5036876;28;20040;-75
2022/05/15 00:22:00;;;;;;;6.75;2.97;;;18.20;87.90;;;;;;5036317;28;20507;-75
2022/05/15 00:24:28;;;;;;;10.80;3.50;;;18.10;87.50;;;;;;5036815;28;20037;-75
2022/05/15 00:26:57;;;;;;;10.57;3.08;;;18.10;87.80;;;;;;5035909;28;20463;-75
2022/05/15 00:29:24;;;;;;;8.10;3.00;;;18.10;87.40;;;;;;5054673;28;20040;-75
2022/05/15 00:31:50;;;;;;;4.90;2.38;;;18.00;87.30;;;;;;5036083;28;20083;-75
2022/05/15 00:34:18;;;;;;;11.13;3.28;;;18.00;87.70;;;;;;5036888;28;20462;-75
2022/05/15 00:36:44;;;;;;;6.32;3.20;;;18.00;87.90;;;;;;5053749;28;20053;-75
2022/05/15 00:39:10;;;;;;;7.43;2.95;;;17.80;88.40;;;;;;5036280;28;20472;-75
2022/05/15 00:41:40;;;;;;;6.88;3.25;;;17.80;88.50;;;;;;5036568;28;20033;-75
2022/05/15 00:44:08;;;;;;;8.27;3.10;;;17.90;88.30;;;;;;5035964;28;20033;-75
2022/05/15 00:46:41;;;;;;;6.70;2.80;;;17.90;88.10;;;;;;5036183;28;20033;-75
2022/05/15 00:49:13;;;;;;;11.10;3.47;;;17.90;88.40;;;;;;5035707;28;20065;-76
2022/05/15 00:51:45;;;;;;;10.20;3.15;;;17.80;88.80;;;;;;5036212;28;20393;-75
2022/05/15 00:54:32;;;;;;;9.32;3.70;;;17.70;88.40;;;;;;5054366;28;20154;-75
2022/05/15 00:57:11;;;;;;;8.90;3.17;;;17.70;88.70;;;;;;5035703;28;20088;-75
2022/05/15 00:59:48;;;;;;;6.63;3.85;;;17.60;88.90;;;;;;5036217;28;20474;-75
2022/05/15 01:02:16;;;;;;;5.65;3.00;;;17.60;89.00;;;;;;5035312;28;20446;-75
2022/05/15 01:04:44;;;;;;;8.60;3.30;;;17.60;89.30;;;;;;5035687;28;20058;-75
2022/05/15 01:07:12;;;;;;;5.63;2.85;;;17.50;89.40;;;;;;5053989;28;20049;-75
2022/05/15 01:09:42;;;;;;;9.55;4.82;;;17.50;90.00;;;;;;5035962;28;20490;-75
2022/05/15 01:12:13;;;;;;;9.88;4.82;;;17.50;89.50;;;;;;5053179;28;20033;-75
2022/05/15 01:14:45;;;;;;;7.35;2.83;;;17.40;89.50;;;;;;5036125;28;20139;-75
2022/05/15 01:17:11;;;;;;;10.43;3.90;;;17.40;89.80;;;;;;5035842;28;20115;-75
2022/05/15 01:19:39;;;;;;;10.63;3.80;;;17.50;89.50;;;;;;5035899;28;20052;-75
2022/05/15 01:22:11;;;;;;;6.22;3.53;;;17.50;89.60;;;;;;5035187;28;20565;-75
2022/05/15 01:24:37;;;;;;;11.10;4.25;;;17.40;90.00;;;;;;5053775;28;20032;-76
2022/05/15 01:27:07;;;;;;;10.88;3.92;;;17.30;90.00;;;;;;5034802;28;20028;-75
2022/05/15 01:29:43;;;;;;;7.13;3.22;;;17.30;90.00;;;;;;5035243;28;20194;-75
2022/05/15 01:32:10;;;;;;;12.98;3.95;;;17.30;90.10;;;;;;5035074;28;20033;-75
2022/05/15 01:34:37;;;;;;;5.68;3.45;;;17.30;90.00;;;;;;5035256;28;20041;-75
2022/05/15 01:37:03;;;;;;;7.45;3.45;;;17.30;90.20;;;;;;5052304;28;20068;-75
2022/05/15 01:39:30;;;;;;;10.52;3.13;;;17.30;90.40;;;;;;5035103;28;20123;-75
2022/05/15 01:41:56;;;;;;;13.48;4.32;;;17.30;90.50;;;;;;5052888;28;20052;-75
2022/05/15 01:44:22;;;;;;;6.47;3.63;;;17.20;90.40;;;;;;5035306;28;20040;-75
2022/05/15 01:46:48;;;;;;;8.30;4.45;;;17.20;90.40;;;;;;5034676;28;20036;-75
2022/05/15 01:49:15;;;;;;;5.82;2.47;;;17.20;90.40;;;;;;5035263;28;20037;-75
2022/05/15 01:51:42;;;;;;;5.70;3.03;;;17.10;90.50;;;;;;5035162;28;20064;-75
2022/05/15 01:54:09;;;;;;;7.68;2.58;;;17.10;90.70;;;;;;5052468;28;20467;-75
2022/05/15 01:56:36;;;;;;;13.02;3.10;;;17.10;90.80;;;;;;5035096;28;20124;-74
2022/05/15 01:59:04;;;;;;;7.15;3.30;;;17.00;90.90;;;;;;5034450;28;20409;-75
2022/05/15 02:01:29;;;;;;;11.23;3.70;;;17.10;90.70;;;;;;5052643;28;20050;-75
2022/05/15 02:03:55;;;;;;;10.23;3.13;;;17.10;90.60;;;;;;5034254;28;20066;-75
2022/05/15 02:06:21;;;;;;;7.47;3.17;;;17.10;90.70;;;;;;5034905;28;20039;-75
2022/05/15 02:08:48;;;;;;;10.65;4.60;;;17.20;90.70;;;;;;5034714;28;20045;-75
2022/05/15 02:11:16;;;;;;;7.40;3.63;;;17.00;90.70;;;;;;5034811;28;20037;-74
2022/05/15 02:13:42;;;;;;;11.88;3.92;;;17.00;90.80;;;;;;5034297;28;20037;-75
2022/05/15 02:16:08;;;;;;;12.45;4.18;;;16.90;91.00;;;;;;5052199;28;20035;-74
2022/05/15 02:18:34;;;;;;;10.35;3.67;;;16.90;91.30;;;;;;5034589;28;20068;-75
2022/05/15 02:21:01;;;;;;;13.30;3.90;;;16.80;91.10;;;;;;5034207;28;20049;-75
2022/05/15 02:23:28;;;;;;;7.82;3.20;;;16.80;91.10;;;;;;5052692;28;20115;-75
2022/05/15 02:25:55;;;;;;;6.50;3.45;;;16.80;91.30;;;;;;5034195;28;20033;-75
2022/05/15 02:28:21;;;;;;;11.30;3.13;;;16.70;91.50;;;;;;5034686;28;20068;-75
2022/05/15 02:30:50;;;;;;;12.02;3.65;;;16.70;91.60;;;;;;5034678;28;20047;-75
2022/05/15 02:33:17;;;;;;;8.75;3.30;;;16.70;91.70;;;;;;5052136;28;20040;-75
2022/05/15 02:35:43;;;;;;;4.70;3.22;;;16.60;91.60;;;;;;5033904;28;20217;-74
2022/05/15 02:38:12;;;;;;;6.45;3.30;;;16.70;91.70;;;;;;5051550;28;20052;-74
2022/05/15 02:40:38;;;;;;;5.68;3.03;;;16.70;91.70;;;;;;5034495;28;20501;-75
2022/05/15 02:43:04;;;;;;;4.63;2.80;;;16.60;91.80;;;;;;5051811;28;20029;-74
2022/05/15 02:45:30;;;;;;;7.57;3.13;;;16.70;91.70;;;;;;5034393;28;20033;-75
2022/05/15 02:47:56;;;;;;;10.32;3.58;;;16.70;91.70;;;;;;5051084;28;20039;-75
2022/05/15 02:53:06;;;;;;;12.30;3.35;;;16.60;91.80;;;;;;5051790;28;20082;-75
2022/05/15 02:55:33;;;;;;;9.23;3.72;;;16.50;92.00;;;;;;5052139;28;20041;-75
2022/05/15 02:57:59;;;;;;;7.53;3.42;;;16.60;92.20;;;;;;5017175;28;20039;-75
2022/05/15 03:00:26;;;;;;;6.10;3.35;;;16.50;92.10;;;;;;5052157;28;20037;-75
2022/05/15 03:02:52;;;;;;;9.38;3.70;;;16.50;92.40;;;;;;5051599;28;20083;-75
2022/05/15 03:05:20;;;;;;;9.45;5.05;;;16.50;92.40;;;;;;5052499;28;20048;-75
2022/05/15 03:07:46;;;;;;;11.75;4.10;;;16.40;92.40;;;;;;5052188;28;20429;-74
2022/05/15 03:10:15;;;;;;;9.75;3.88;;;16.30;92.80;;;;;;5033369;28;20553;-75
2022/05/15 03:12:41;;;;;;;9.38;3.67;;;16.40;92.50;;;;;;5051798;28;20094;-74
2022/05/15 03:15:08;;;;;;;6.00;3.42;;;16.40;92.60;;;;;;5033584;28;20394;-75
2022/05/15 03:17:35;;;;;;;8.02;3.50;;;16.40;92.50;;;;;;5034252;28;20040;-75
2022/05/15 03:20:06;;;;;;;14.98;3.97;;;16.50;92.50;;;;;;5033478;28;20045;-74
2022/05/15 03:22:32;;;;;;;8.65;3.25;;;16.50;92.50;;;;;;5017762;28;20114;-75
2022/05/15 03:24:58;;;;;;;9.10;3.75;;;16.50;92.50;;;;;;5035751;28;20037;-75
2022/05/15 03:27:24;;;;;;;9.35;5.18;;;16.40;92.70;;;;;;5055919;28;20029;-74
2022/05/15 03:29:50;;;;;;;10.38;3.50;;;16.40;92.50;;;;;;5056085;28;20119;-74
2022/05/15 03:32:16;;;;;;;11.80;3.88;;;16.40;92.60;;;;;;5036919;28;20044;-75
2022/05/15 03:34:42;;;;;;;10.55;3.65;;;16.30;92.80;;;;;;5037593;28;20033;-74
2022/05/15 03:37:08;;;;;;;15.00;4.40;;;16.40;92.70;;;;;;5033594;28;20053;-75
2022/05/15 03:39:34;;;;;;;9.32;3.92;;;16.40;92.50;;;;;;5034329;28;20501;-75
2022/05/15 03:42:00;;;;;;;13.18;3.63;;;16.40;92.50;;;;;;5017468;28;20068;-75
2022/05/15 03:44:26;;;;;;;10.65;3.95;;;16.40;92.70;;;;;;5017858;28;20048;-74
2022/05/15 03:46:52;;;;;;;10.57;3.85;;;16.40;92.60;;;;;;5017916;28;20470;-75
2022/05/15 03:49:18;;;;;;;10.63;3.75;;;16.40;92.60;;;;;;5016910;28;20037;-75
2022/05/15 03:51:44;;;;;;;8.77;3.40;;;16.40;92.50;;;;;;5034305;28;20030;-75
2022/05/15 03:54:11;;;;;;;7.72;3.30;;;16.50;92.50;;;;;;5017090;28;20045;-75
2022/05/15 03:56:50;;;;;;;9.48;4.22;;;16.50;92.50;;;;;;5017801;28;20041;-75
2022/05/15 03:59:21;;;;;;;7.93;3.40;;;16.50;92.50;;;;;;5033499;28;20050;-75
2022/05/15 04:01:48;;;;;;;12.45;4.00;;;16.40;92.70;;;;;;5017672;28;20120;-75
2022/05/15 04:04:14;;;;;;;5.68;3.20;;;16.30;92.80;;;;;;5016955;28;20144;-75
2022/05/15 04:06:40;;;;;;;10.35;3.63;;;16.40;92.80;;;;;;5017213;28;20080;-75
2022/05/15 04:09:07;;;;;;;7.05;3.80;;;16.20;93.10;;;;;;5034663;28;20041;-75
2022/05/15 04:11:33;;;;;;;12.00;4.05;;;16.20;93.10;;;;;;5016904;28;20140;-75
2022/05/15 04:14:00;;;;;;;7.82;3.85;;;16.30;93.10;;;;;;5016663;28;20053;-75
2022/05/15 04:16:26;;;;;;;12.18;3.78;;;16.30;93.20;;;;;;5035107;28;20037;-75
2022/05/15 04:18:52;;;;;;;8.27;4.10;;;16.20;93.30;;;;;;5033657;28;20124;-75
2022/05/15 04:21:18;;;;;;;8.15;3.95;;;16.20;93.30;;;;;;5034018;28;20038;-75
2022/05/15 04:23:44;;;;;;;8.95;4.43;;;16.30;93.40;;;;;;5017227;28;20536;-75
2022/05/15 04:26:10;;;;;;;9.02;4.20;;;16.30;93.30;;;;;;5016322;28;20029;-75
2022/05/15 04:28:36;;;;;;;7.72;4.50;;;16.20;93.50;;;;;;5016854;28;20125;-74
2022/05/15 04:31:03;;;;;;;5.05;3.53;;;16.30;93.60;;;;;;5033841;28;20494;-75
2022/05/15 04:33:29;;;;;;;8.65;4.30;;;16.20;93.60;;;;;;5034455;28;20034;-74
2022/05/15 04:35:55;;;;;;;8.13;4.47;;;16.10;93.80;;;;;;5016423;28;20156;-75
2022/05/15 04:38:21;;;;;;;11.82;4.00;;;16.10;93.90;;;;;;5034297;28;20029;-75
2022/05/15 04:40:47;;;;;;;8.38;4.22;;;16.20;93.70;;;;;;5030837;28;20493;-76
2022/05/15 04:43:13;;;;;;;11.80;4.20;;;16.20;93.90;;;;;;5055723;28;20072;-74
2022/05/15 04:45:39;;;;;;;9.55;4.20;;;16.30;93.70;;;;;;5036801;28;20193;-74
2022/05/15 04:48:05;;;;;;;8.98;4.03;;;16.20;93.80;;;;;;5035900;28;20037;-74
2022/05/15 04:50:41;;;;;;;8.25;3.63;;;16.30;93.80;;;;;;5036457;28;20037;-75
2022/05/15 04:53:12;;;;;;;7.75;4.03;;;16.20;93.90;;;;;;5035990;28;20037;-75
2022/05/15 04:55:41;;;;;;;;;;;16.30;93.90;;;;;;5036650;28;20036;-75
2022/05/15 04:58:10;;;;;;;5.80;3.80;;;16.30;93.80;;;;;;5035528;28;19914;-75
2022/05/15 05:00:36;;;;;;;14.00;5.72;;;16.40;93.70;;;;;;5054302;28;20047;-75
2022/05/15 05:03:25;;;;;;;7.43;4.20;;;16.50;93.70;;;;;;5035586;28;20048;-75
2022/05/15 05:05:51;;;;;;;9.50;3.58;;;16.50;93.70;;;;;;4936802;29;20048;-73
2022/05/15 05:08:20;;;;;;;10.73;4.03;;;16.50;93.60;;;;;;4958574;28;20051;-74
2022/05/15 05:10:45;;;;;;;8.57;3.88;;;16.60;93.50;;;;;;4962020;28;20043;-74
2022/05/15 05:13:23;;;;;;;7.13;3.92;;;16.50;93.60;;;;;;4960029;28;20184;-73
2022/05/15 05:15:49;;;;;;;13.02;4.00;;;16.60;93.50;;;;;;4972303;28;20070;-78
2022/05/15 05:18:18;;;;;;;5.70;3.92;;;16.70;96.10;;;;;;4981004;28;20077;-79
2022/05/15 05:20:47;;;;;;;11.52;4.68;;;16.90;94.20;;;;;;4964879;28;20039;-79
2022/05/15 05:23:14;;;;;;;7.82;3.50;;;17.00;93.60;;;;;;4979469;28;20042;-76
2022/05/15 05:25:40;;;;;;;9.38;3.05;;;17.10;93.10;;;;;;4981640;28;20113;-71
2022/05/15 05:28:06;;;;;;;10.63;3.75;;;18.00;93.60;;;;;;4976540;28;20126;-75
2022/05/15 05:30:32;;;;;;;7.00;4.40;;;18.30;92.30;;;;;;4974018;28;20481;-75
2022/05/15 05:33:01;;;;;;;9.20;3.63;;;17.70;91.80;;;;;;4953826;28;20042;-75
2022/05/15 05:35:32;;;;;;;7.72;3.80;;;17.50;92.20;;;;;;4982434;28;20031;-73
2022/05/15 05:38:01;;;;;;;10.35;3.13;;;17.40;92.40;;;;;;4978710;28;20043;-75
2022/05/15 05:40:28;;;;;;;9.15;3.72;;;17.50;92.30;;;;;;4955955;28;20058;-74
2022/05/15 05:42:53;;;;;;;7.88;3.95;;;17.30;92.40;;;;;;5004997;28;20048;-75
2022/05/15 05:45:20;;;;;;;9.18;3.95;;;17.20;92.80;;;;;;5052633;28;20382;-73
2022/05/15 05:47:48;;;;;;;7.28;3.78;;;17.20;92.80;;;;;;5034743;28;20114;-74
2022/05/15 05:50:18;;;;;;;11.32;7.18;;;17.20;93.00;;;;;;5034696;28;20037;-74
2022/05/15 05:52:46;;;;;;;5.90;3.70;;;17.20;93.60;;;;;;5031891;28;20045;-75
2022/05/15 05:55:15;;;;;;;10.00;4.82;;;17.30;93.00;;;;;;5049160;28;20069;-75
2022/05/15 05:57:42;;;;;;;13.85;3.63;;;17.30;92.90;;;;;;5052250;28;20029;-76
2022/05/15 06:00:19;;;;;;;7.07;3.70;;;17.30;93.00;;;;;;5032892;28;20049;-75
2022/05/15 06:02:48;;;;;;;8.13;4.10;;;17.20;93.00;;;;;;5040728;28;20033;-76
2022/05/15 06:05:15;;;;;;;10.13;3.88;;;17.20;93.20;;;;;;5033835;28;20037;-75
2022/05/15 06:07:41;;;;;;;9.60;3.90;;;17.40;93.10;;;;;;5052897;28;20119;-74
2022/05/15 06:10:13;;;;;;;6.88;3.35;;;17.40;93.20;;;;;;5034387;28;20462;-75
2022/05/15 06:12:42;;;;;;;7.20;3.50;;;17.50;93.00;;;;;;5052879;28;20374;-75
2022/05/15 06:15:10;;;;;;;8.80;3.88;;;17.50;93.10;;;;;;5051918;28;20397;-75
2022/05/15 06:17:42;;;;;;;15.32;4.53;;;17.70;93.10;;;;;;5035151;28;20438;-75
2022/05/15 06:20:13;;;;;;;6.60;3.65;;;17.80;92.70;;;;;;5034020;28;20444;-75
2022/05/15 06:22:39;;;;;;;9.88;3.72;;;17.80;92.40;;;;;;5034802;28;20394;-74
2022/05/15 06:25:30;;;;;;;;;;;;;;;;;;;;;
2022/05/15 06:27:56;;;;;;;5.97;3.42;;;17.90;91.90;;;;;;5046457;28;20033;-76
2022/05/15 06:30:23;;;;;;;8.55;3.50;;;17.90;92.30;;;;;;5033844;28;20045;-75
2022/05/15 06:32:55;;;;;;;10.75;3.20;;;17.90;92.30;;;;;;5034397;28;20037;-75
2022/05/15 06:35:25;;;;;;;8.25;3.38;;;18.00;92.60;;;;;;5050729;28;20265;-74
2022/05/15 06:38:03;;;;;;;;;;;;;;;;;;;;;
2022/05/15 06:40:40;;;;;;;7.88;3.85;;;18.10;92.20;;;;;;5070695;28;20039;-76
2022/05/15 06:43:06;;;;;;;9.45;3.65;;;18.90;95.10;;;;;;5065093;28;20028;-76
2022/05/15 06:45:32;;;;;;;9.60;3.25;;;19.30;93.40;;;;;;5043479;28;20036;-76
2022/05/15 06:48:07;;;;;;;9.48;3.83;;;19.60;93.40;;;;;;5054342;28;20033;-76
2022/05/15 06:50:33;;;;;;;8.68;3.42;;;19.80;93.10;;;;;;5053948;28;20056;-77
2022/05/15 06:53:23;;;;;;;8.02;3.60;;;20.10;92.50;;;;;;5059402;28;20043;-83
2022/05/15 06:58:44;;;;;;;6.25;3.88;;;20.40;89.00;;;;;;5072566;28;20086;-77
2022/05/15 07:01:21;;;;;;;6.30;3.58;;;20.10;89.30;;;;;;5073768;28;20036;-77
2022/05/15 07:04:02;;;;;;;7.88;3.10;;;19.90;89.50;;;;;;5075967;28;20386;-76
2022/05/15 07:13:29;;;;;;;7.75;3.40;;;19.90;89.60;;;;;;5075902;28;20024;-77
2022/05/15 07:15:56;;;;;;;7.80;2.90;;;19.90;89.90;;;;;;5058072;28;20037;-78
2022/05/15 07:18:23;;;;;;;8.00;3.65;;;20.00;90.00;;;;;;5057298;28;20032;-77
2022/05/15 07:20:51;;;;;;;7.75;2.85;;;20.00;90.00;;;;;;5075868;28;20466;-77
2022/05/15 07:23:18;;;;;;;6.65;2.63;;;20.00;90.00;;;;;;5040316;28;20032;-77
2022/05/15 07:25:48;;;;;;;8.88;4.13;;;20.10;89.80;;;;;;5057922;28;20032;-77
2022/05/15 07:28:17;;;;;;;8.88;3.22;;;20.20;89.60;;;;;;5057323;28;20473;-77
2022/05/15 07:30:43;;;;;;;12.52;3.25;;;20.40;89.20;;;;;;5075700;28;20462;-78
2022/05/15 07:33:09;;;;;;;8.45;3.83;;;20.50;89.30;;;;;;5075166;28;20037;-77
2022/05/15 07:42:33;;;;;;;8.30;2.97;;;21.00;88.00;;;;;;4974354;28;20093;-77
2022/05/15 07:45:19;;;;;;;6.75;3.13;;;21.00;87.90;;;;;;4979941;28;20050;-77
2022/05/15 07:47:48;;;;;;;5.40;2.33;;;21.10;87.00;;;;;;4990411;28;20040;-77
2022/05/15 07:50:14;;;;;;;7.75;2.42;;;21.40;87.20;;;;;;5045700;28;20044;-78
2022/05/15 07:52:40;;;;;;;8.15;3.00;;;21.60;86.20;;;;;;5057083;28;20404;-77
2022/05/15 07:55:10;;;;;;;5.25;2.63;;;21.60;85.70;;;;;;5057163;28;20477;-76
2022/05/15 07:57:49;;;;;;;8.73;3.10;;;21.70;85.20;;;;;;5075072;28;20478;-78
2022/05/15 08:00:16;;;;;;;10.18;3.55;;;22.00;84.70;;;;;;5074462;28;20062;-78
2022/05/15 08:02:50;;;;;;;6.15;2.70;;;22.00;84.70;;;;;;5057154;28;20036;-77
2022/05/15 08:08:11;;;;;;;11.93;4.13;;;22.60;84.00;;;;;;5075124;28;20112;-77
2022/05/15 08:10:40;;;;;;;8.35;3.03;;;22.80;82.70;;;;;;5074057;28;20098;-78
2022/05/15 08:13:12;;;;;;;5.90;2.30;;;22.90;81.80;;;;;;5040305;28;20127;-78
2022/05/15 08:15:42;;;;;;;5.43;2.20;;;22.50;83.30;;;;;;5057098;28;20029;-78
2022/05/15 08:23:59;;;;;;;5.57;2.30;;;23.60;81.10;;;;;;5074770;28;20047;-78
2022/05/15 08:26:56;;;;;;;9.30;2.53;;;23.60;81.20;;;;;;5056178;28;20039;-78
2022/05/15 08:29:25;;;;;;;7.05;2.47;;;23.60;80.60;;;;;;5055210;28;20055;-78
2022/05/15 08:31:57;;;;;;;4.53;2.47;;;23.90;81.70;;;;;;5074002;28;20462;-78
2022/05/15 08:34:30;;;;;;;9.57;3.25;;;24.00;80.60;;;;;;5055195;28;20033;-78
2022/05/15 08:36:57;;;;;;;9.35;3.20;;;24.20;79.20;;;;;;5055247;28;20122;-78
2022/05/15 08:39:33;;;;;;;6.93;2.47;;;23.30;80.00;;;;;;5055607;28;20174;-78
2022/05/15 08:42:21;;;;;;;5.95;2.30;;;24.00;79.60;;;;;;5056651;28;20029;-78
2022/05/15 08:44:50;;;;;;;9.65;2.60;;;24.50;79.00;;;;;;5074514;28;20033;-77
2022/05/15 08:47:39;;;;;;;5.63;2.42;;;24.70;78.60;;;;;;5073311;28;20020;-77
2022/05/15 08:50:19;;;;;;;5.90;2.20;;;25.10;78.40;;;;;;5073623;28;20090;-78
2022/05/15 08:53:32;;;;;;;10.23;3.00;;;25.20;78.80;;;;;;5057171;28;20130;-77
2022/05/15 08:56:14;;;;;;;8.23;2.45;;;25.10;78.10;;;;;;5063966;28;20036;-77
2022/05/15 08:59:12;;;;;;;6.78;2.47;;;25.40;78.00;;;;;;5068572;28;20048;-77
2022/05/15 09:01:38;;;;;;;9.30;2.63;;;25.30;78.70;;;;;;5069642;28;20484;-77
2022/05/15 09:04:04;;;;;;;8.10;2.00;;;25.60;78.40;;;;;;5056104;28;20032;-76
2022/05/15 09:06:48;;;;;;;6.30;2.17;;;25.70;77.50;;;;;;5033711;28;20044;-77
2022/05/15 09:09:56;;;;;;;7.75;2.20;;;25.90;76.70;;;;;;5054107;28;20087;-77
2022/05/15 09:12:59;;;;;;;7.10;2.15;;;26.20;75.90;;;;;;5041865;28;20040;-78
2022/05/15 09:15:33;;;;;;;6.18;2.60;;;26.10;77.30;;;;;;5070243;28;20043;-75
2022/05/15 09:18:04;;;;;;;7.38;2.17;;;25.80;77.00;;;;;;5074206;28;20060;-74
2022/05/15 09:20:54;;;;;;;6.57;2.38;;;25.90;77.10;;;;;;5073072;28;20040;-74
2022/05/15 09:23:36;;;;;;;5.65;2.63;;;25.80;76.00;;;;;;5047944;28;20426;-74
2022/05/15 09:26:15;;;;;;;4.25;2.22;;;25.70;76.40;;;;;;5067436;28;20105;-74
2022/05/15 09:28:45;;;;;;;7.95;1.92;;;25.50;75.60;;;;;;5073474;28;20055;-74
2022/05/15 09:31:24;;;;;;;7.55;2.58;;;25.60;76.50;;;;;;5072193;28;20028;-75
2022/05/15 09:34:22;;;;;;;7.35;2.50;;;25.70;77.10;;;;;;5055084;28;20484;-67
2022/05/15 09:36:50;;;;;;;4.88;1.85;;;26.00;76.30;;;;;;5060565;28;20500;-74
2022/05/15 09:39:20;;;;;;;10.25;2.25;;;26.00;77.40;;;;;;5063096;28;20306;-70
2022/05/15 09:44:44;;;;;;;4.72;1.80;;;26.00;76.20;;;;;;5080477;28;20586;-73
2022/05/15 09:47:10;;;;;;;9.05;2.03;;;25.80;76.40;;;;;;5063594;28;20028;-64
2022/05/15 09:49:36;;;;;;;7.68;2.35;;;25.80;76.60;;;;;;5072760;28;20047;-71
2022/05/15 09:52:18;;;;;;;8.07;2.60;;;26.00;76.60;;;;;;5054114;28;20052;-70
2022/05/15 09:54:47;;;;;;;5.15;2.38;;;26.10;76.40;;;;;;5051083;28;20060;-71
2022/05/15 09:57:24;;;;;;;7.35;2.38;;;26.30;76.20;;;;;;5034102;28;20029;-70
2022/05/15 09:59:58;;;;;;;4.97;1.63;;;26.30;75.50;;;;;;5052497;28;20040;-71
2022/05/15 10:02:39;;;;;;;10.35;1.83;;;26.30;76.20;;;;;;5052066;28;20373;-70
2022/05/15 10:05:28;;;;;;;6.78;1.63;;;26.40;75.30;;;;;;5061226;28;20029;-71
2022/05/15 10:08:24;;;;;;;4.80;1.95;;;26.40;73.80;;;;;;5051636;28;20044;-71
2022/05/15 10:11:01;;;;;;;4.78;1.80;;;26.20;73.80;;;;;;5052358;28;20418;-72
2022/05/15 10:13:41;;;;;;;6.43;2.03;;;26.40;73.60;;;;;;5051809;28;20025;-71
2022/05/15 10:16:22;;;;;;;5.85;1.88;;;26.30;73.40;;;;;;5060636;28;20115;-67
2022/05/15 10:18:54;;;;;;;;;;;26.50;73.00;;;;;;5051560;28;20037;-70
2022/05/15 10:21:27;;;;;;;6.05;2.13;;;26.80;73.80;;;;;;5066599;28;19937;-70
2022/05/15 10:24:04;;;;;;;5.05;2.38;;;27.10;72.90;;;;;;5063034;28;20033;-73
2022/05/15 10:26:45;;;;;;;5.60;2.15;;;27.20;72.90;;;;;;5053627;28;20036;-72
2022/05/15 10:29:11;;;;;;;4.93;2.20;;;27.30;71.80;;;;;;5069211;28;20127;-70
2022/05/15 10:31:57;;;;;;;4.53;1.90;;;27.40;72.30;;;;;;5071408;28;20068;-71
2022/05/15 10:34:26;;;;;;;9.10;2.40;;;27.50;70.90;;;;;;5069180;28;20036;-71
2022/05/15 10:37:04;;;;;;;4.68;1.73;;;27.80;70.60;;;;;;5065880;28;20118;-71
2022/05/15 10:39:46;;;;;;;6.13;1.90;;;27.90;69.20;;;;;;5041719;28;20111;-70
2022/05/15 10:42:23;;;;;;;8.38;2.20;;;27.80;69.50;;;;;;5052427;28;20125;-69
2022/05/15 10:45:17;;;;;;;8.57;2.55;;;27.40;69.60;;;;;;5050648;28;20028;-70
2022/05/15 10:48:03;;;;;;;5.65;1.98;;;27.70;69.00;;;;;;5070505;28;20040;-70
2022/05/15 10:51:10;;;;;;;7.90;2.78;;;27.80;68.80;;;;;;5041638;28;20032;-71
2022/05/15 10:59:58;;;;;;;6.90;1.98;;;28.10;67.70;;;;;;5067225;28;20491;-74
2022/05/15 11:02:45;;;;;;;5.68;2.00;;;27.40;65.30;;;;;;5052540;28;20025;-74
2022/05/15 11:05:30;;;;;;;5.32;1.75;;;27.20;66.30;;;;;;5053438;28;20033;-75
2022/05/15 11:08:18;;;;;;;7.78;1.60;;;27.10;66.20;;;;;;5071910;28;20020;-74
2022/05/15 11:11:24;;;;;;;6.38;1.55;;;27.30;66.10;;;;;;5046548;28;20043;-74
2022/05/15 11:14:15;;;;;;;2.80;1.08;;;27.60;66.10;;;;;;5034009;28;20106;-76
2022/05/15 11:17:08;;;;;;;3.60;1.50;;;28.10;65.30;;;;;;5067214;28;20031;-75
2022/05/15 11:19:39;;;;;;;10.38;2.15;;;28.20;65.10;;;;;;5069113;28;20051;-74
2022/05/15 11:22:17;;;;;;;5.75;1.60;;;28.30;65.50;;;;;;5067545;28;20040;-73
2022/05/15 11:25:13;;;;;;;5.40;1.33;;;28.70;64.90;;;;;;5070846;28;20033;-73
2022/05/15 11:27:48;;;;;;;8.00;1.67;;;29.00;64.40;;;;;;5071127;28;20037;-73
2022/05/15 11:30:28;;;;;;;17.15;6.60;;;29.10;64.10;;;;;;5053330;28;20086;-73
2022/05/15 11:32:54;;;;;;;6.88;3.55;;;28.70;66.00;;;;;;5053807;28;20025;-73
2022/05/15 11:35:23;;;;;;;3.70;1.70;;;28.70;65.70;;;;;;5063856;28;20036;-73
2022/05/15 11:38:05;;;;;;;6.53;1.98;;;28.80;64.40;;;;;;5059355;28;20044;-73
2022/05/15 11:40:51;;;;;;;4.50;1.27;;;28.60;63.80;;;;;;5077374;28;20028;-74
2022/05/15 11:43:26;;;;;;;6.53;2.20;;;28.30;64.20;;;;;;5062270;28;20043;-73
2022/05/15 11:46:02;;;;;;;6.60;2.42;;;28.50;65.20;;;;;;5064820;28;20037;-74
2022/05/15 11:48:49;;;;;;;7.70;2.78;;;27.90;64.00;;;;;;5062218;28;20032;-74
2022/05/15 11:51:20;;;;;;;12.20;1.92;;;28.00;65.00;;;;;;5084568;28;20098;-74
2022/05/15 11:54:00;;;;;;;7.72;1.83;;;28.00;65.00;;;;;;5062651;28;20465;-74
2022/05/15 11:56:46;;;;;;;6.65;2.05;;;27.80;64.60;;;;;;5082461;28;20032;-73
2022/05/15 11:59:21;;;;;;;6.25;1.73;;;27.90;64.60;;;;;;5056873;28;20315;-74
2022/05/15 12:01:48;;;;;;;6.57;2.60;;;28.30;64.60;;;;;;5057613;28;20063;-76
2022/05/15 12:04:33;;;;;;;6.28;2.15;;;28.30;67.00;;;;;;5065780;28;20016;-79
2022/05/15 12:06:59;;;;;;;2.72;1.58;;;28.60;66.10;;;;;;5045265;28;20041;-74
2022/05/15 12:09:36;;;;;;;5.95;2.03;;;28.70;65.20;;;;;;5042831;28;20040;-74
2022/05/15 12:12:24;;;;;;;6.50;2.15;;;28.50;66.60;;;;;;5063379;28;20029;-75
2022/05/15 12:15:37;;;;;;;3.33;1.50;;;28.50;65.10;;;;;;5061542;28;20032;-75
2022/05/15 12:18:31;;;;;;;5.65;2.25;;;28.40;64.50;;;;;;5063186;28;20145;-77
2022/05/15 12:21:23;;;;;;;5.25;1.63;;;28.30;65.00;;;;;;5045983;28;20140;-74
2022/05/15 12:26:38;;;;;;;4.43;1.65;;;28.30;64.90;;;;;;5062768;28;20048;-74
2022/05/15 12:29:17;;;;;;;;;;;28.40;65.00;;;;;;5044730;28;20057;-73
2022/05/15 12:31:46;;;;;;;9.02;2.35;;;28.10;63.60;;;;;;5062862;28;19912;-85
2022/05/15 12:34:42;;;;;;;;;;;;;;;;;;;;;
2022/05/15 12:37:21;;;;;;;6.82;1.60;;;28.40;63.90;;;;;;5067527;28;20445;-71
2022/05/15 12:39:56;;;;;;;3.45;1.55;;;29.00;63.70;;;;;;5043017;28;20049;-72
2022/05/15 12:42:57;;;;;;;5.60;1.40;;;29.20;62.70;;;;;;5040949;28;20450;-73
2022/05/15 12:45:22;;;;;;;;;;;29.60;62.00;;;;;;5067771;28;20478;-74
2022/05/15 12:48:06;;;;;;;8.82;2.10;;;29.50;61.20;;;;;;5070923;28;19915;-73
2022/05/15 12:50:33;;;;;;;7.80;1.98;;;29.40;62.30;;;;;;5053205;28;20248;-74
2022/05/15 12:53:03;;;;;;;6.15;1.92;;;29.50;61.50;;;;;;5048302;28;20125;-75
2022/05/15 12:55:31;;;;;;;6.82;2.28;;;29.40;61.50;;;;;;5056963;28;20055;-68
2022/05/15 12:57:58;;;;;;;3.97;1.83;;;29.30;61.00;;;;;;5047260;28;20024;-68
2022/05/15 13:00:30;;;;;;;7.75;2.35;;;28.90;62.30;;;;;;5055327;28;20045;-66
2022/05/15 13:03:08;;;;;;;4.15;1.80;;;28.60;62.60;;;;;;5050672;28;20033;-67
2022/05/15 13:05:50;;;;;;;6.43;2.25;;;28.30;60.80;;;;;;5054823;28;20099;-68
2022/05/15 13:08:17;;;;;;;4.43;1.48;;;28.00;59.20;;;;;;5072984;28;20050;-66
2022/05/15 13:10:56;;;;;;;7.95;1.45;;;27.40;60.40;;;;;;5055447;28;20111;-66
2022/05/15 13:13:29;;;;;;;4.22;1.50;;;27.50;61.20;;;;;;5072206;28;20037;-65
2022/05/15 13:15:57;;;;;;;3.35;1.35;;;27.10;60.80;;;;;;5054977;28;20465;-66
2022/05/15 13:18:26;;;;;;;10.77;1.58;;;27.20;61.70;;;;;;5072630;28;20035;-67
2022/05/15 13:21:01;;;;;;;5.13;2.00;;;27.40;61.60;;;;;;5072781;28;20098;-66
2022/05/15 13:23:33;;;;;;;8.20;1.50;;;27.50;62.60;;;;;;5065357;28;20115;-64
2022/05/15 13:26:00;;;;;;;5.47;1.95;;;27.60;61.90;;;;;;5065798;28;20709;-66
2022/05/15 13:28:26;;;;;;;6.20;1.67;;;27.90;62.10;;;;;;5071121;28;20035;-64
2022/05/15 13:30:53;;;;;;;5.63;1.55;;;28.10;61.50;;;;;;5065284;28;20454;-66
2022/05/15 13:33:23;;;;;;;3.22;1.60;;;28.30;61.70;;;;;;5076122;28;20109;-64
2022/05/15 13:35:52;;;;;;;9.38;1.50;;;28.20;62.20;;;;;;5052863;28;20063;-65
2022/05/15 13:38:24;;;;;;;5.65;1.42;;;28.00;62.30;;;;;;5043119;28;20091;-65
2022/05/15 13:43:48;;;;;;;3.80;1.98;;;28.00;65.20;;;;;;5060190;28;20079;-63
2022/05/15 13:46:39;;;;;;;10.70;2.25;;;28.10;63.90;;;;;;5049009;28;20384;-64
2022/05/15 13:49:08;;;;;;;4.45;1.67;;;28.00;64.10;;;;;;5061637;28;20074;-64
2022/05/15 13:51:49;;;;;;;8.15;1.65;;;28.00;63.90;;;;;;5066387;28;20039;-64
2022/05/15 13:54:22;;;;;;;5.43;1.75;;;27.90;64.20;;;;;;5051070;28;20037;-64
2022/05/15 13:57:08;;;;;;;4.03;1.75;;;27.80;64.80;;;;;;5064215;28;20030;-64
2022/05/15 13:59:50;;;;;;;4.40;1.80;;;27.60;65.80;;;;;;5069970;28;20105;-63